sensor_id;sensor_type;location;lat;lon;timestamp;pressure;altitude;pressure_sealevel;temperature;humidity
22649;BME280;11491;41.942;24.220;2023-09-30T00:02:25;90402.44;;;12.10;81.03
22649;BME280;11491;41.942;24.220;2023-09-30T00:04:53;90402.34;;;11.94;81.69
22649;BME280;11491;41.942;24.220;2023-09-30T00:07:20;90405.91;;;11.98;81.47
22649;BME280;11491;41.942;24.220;2023-09-30T00:09:47;90402.22;;;12.03;81.74
22649;BME280;11491;41.942;24.220;2023-09-30T00:12:13;90406.22;;;12.09;81.85
22649;BME280;11491;41.942;24.220;2023-09-30T00:14:40;90402.84;;;12.12;80.29
22649;BME280;11491;41.942;24.220;2023-09-30T00:17:07;90389.81;;;12.11;80.24
22649;BME280;11491;41.942;24.220;2023-09-30T00:19:34;90385.66;;;12.13;79.97
22649;BME280;11491;41.942;24.220;2023-09-30T00:22:02;90398.34;;;12.28;79.17
22649;BME280;11491;41.942;24.220;2023-09-30T00:24:29;90394.34;;;12.22;80.24
22649;BME280;11491;41.942;24.220;2023-09-30T00:26:55;90386.34;;;12.10;81.06
22649;BME280;11491;41.942;24.220;2023-09-30T00:29:22;90390.81;;;12.06;81.56
22649;BME280;11491;41.942;24.220;2023-09-30T00:31:49;90384.97;;;12.16;81.62
22649;BME280;11491;41.942;24.220;2023-09-30T00:34:16;90395.94;;;12.11;82.20
22649;BME280;11491;41.942;24.220;2023-09-30T00:36:42;90388.53;;;12.20;81.06
22649;BME280;11491;41.942;24.220;2023-09-30T00:39:10;90386.72;;;12.24;80.65
22649;BME280;11491;41.942;24.220;2023-09-30T00:41:38;90389.06;;;11.98;82.01
22649;BME280;11491;41.942;24.220;2023-09-30T00:44:05;90381.66;;;12.07;81.22
22649;BME280;11491;41.942;24.220;2023-09-30T00:46:35;90381.16;;;12.17;80.25
22649;BME280;11491;41.942;24.220;2023-09-30T00:49:03;90387.69;;;12.04;81.22
22649;BME280;11491;41.942;24.220;2023-09-30T00:51:30;90384.25;;;12.03;81.75
22649;BME280;11491;41.942;24.220;2023-09-30T00:53:59;90385.38;;;12.02;81.33
22649;BME280;11491;41.942;24.220;2023-09-30T00:56:29;90384.09;;;12.12;80.36
22649;BME280;11491;41.942;24.220;2023-09-30T00:58:56;90380.13;;;11.94;80.45
22649;BME280;11491;41.942;24.220;2023-09-30T01:01:24;90380.25;;;11.85;81.28
22649;BME280;11491;41.942;24.220;2023-09-30T01:03:51;90374.91;;;11.85;81.02
22649;BME280;11491;41.942;24.220;2023-09-30T01:06:18;90373.66;;;11.82;81.74
22649;BME280;11491;41.942;24.220;2023-09-30T01:08:44;90374.78;;;11.81;81.60
22649;BME280;11491;41.942;24.220;2023-09-30T01:11:12;90372.56;;;11.83;82.04
22649;BME280;11491;41.942;24.220;2023-09-30T01:13:40;90379.69;;;11.92;82.26
22649;BME280;11491;41.942;24.220;2023-09-30T01:16:10;90379.59;;;11.88;82.75
22649;BME280;11491;41.942;24.220;2023-09-30T01:18:38;90370.09;;;11.91;82.67
22649;BME280;11491;41.942;24.220;2023-09-30T01:21:08;90373.19;;;12.05;82.23
22649;BME280;11491;41.942;24.220;2023-09-30T01:23:37;90379.41;;;12.09;81.66
22649;BME280;11491;41.942;24.220;2023-09-30T01:26:05;90380.00;;;12.02;82.13
22649;BME280;11491;41.942;24.220;2023-09-30T01:28:34;90377.47;;;11.94;82.63
22649;BME280;11491;41.942;24.220;2023-09-30T01:31:01;90377.47;;;11.94;82.80
22649;BME280;11491;41.942;24.220;2023-09-30T01:33:28;90372.88;;;11.94;82.42
22649;BME280;11491;41.942;24.220;2023-09-30T01:35:55;90376.09;;;12.00;81.77
22649;BME280;11491;41.942;24.220;2023-09-30T01:38:22;90377.38;;;11.90;82.50
22649;BME280;11491;41.942;24.220;2023-09-30T01:40:50;90374.78;;;11.94;82.29
22649;BME280;11491;41.942;24.220;2023-09-30T01:43:17;90368.41;;;11.98;81.19
22649;BME280;11491;41.942;24.220;2023-09-30T01:45:44;90371.22;;;11.90;80.66
22649;BME280;11491;41.942;24.220;2023-09-30T01:48:11;90380.88;;;11.54;82.78
22649;BME280;11491;41.942;24.220;2023-09-30T01:50:38;90373.97;;;11.53;82.88
22649;BME280;11491;41.942;24.220;2023-09-30T01:53:05;90382.41;;;11.55;82.79
22649;BME280;11491;41.942;24.220;2023-09-30T01:55:32;90316.66;;;11.17;82.41
22649;BME280;11491;41.942;24.220;2023-09-30T01:58:01;90381.09;;;11.49;82.68
22649;BME280;11491;41.942;24.220;2023-09-30T02:00:28;90372.59;;;11.59;82.50
22649;BME280;11491;41.942;24.220;2023-09-30T02:02:56;90379.06;;;11.70;81.34
22649;BME280;11491;41.942;24.220;2023-09-30T02:05:22;90376.72;;;11.56;81.76
22649;BME280;11491;41.942;24.220;2023-09-30T02:07:49;90378.19;;;11.54;81.71
22649;BME280;11491;41.942;24.220;2023-09-30T02:10:17;90368.38;;;11.46;82.55
22649;BME280;11491;41.942;24.220;2023-09-30T02:12:45;90362.56;;;11.56;82.80
22649;BME280;11491;41.942;24.220;2023-09-30T02:15:14;90372.50;;;11.55;83.54
22649;BME280;11491;41.942;24.220;2023-09-30T02:17:41;90364.47;;;11.55;83.77
22649;BME280;11491;41.942;24.220;2023-09-30T02:20:11;90367.94;;;11.56;84.50
22649;BME280;11491;41.942;24.220;2023-09-30T02:22:41;90357.63;;;11.70;83.82
22649;BME280;11491;41.942;24.220;2023-09-30T02:25:09;90368.75;;;11.84;83.47
22649;BME280;11491;41.942;24.220;2023-09-30T02:27:39;90360.41;;;11.74;83.92
22649;BME280;11491;41.942;24.220;2023-09-30T02:30:08;90370.97;;;11.82;84.42
22649;BME280;11491;41.942;24.220;2023-09-30T02:32:38;90366.28;;;11.79;84.61
22649;BME280;11491;41.942;24.220;2023-09-30T02:35:06;90370.31;;;11.85;83.93
22649;BME280;11491;41.942;24.220;2023-09-30T02:37:33;90371.41;;;11.97;82.94
22649;BME280;11491;41.942;24.220;2023-09-30T02:40:02;90365.19;;;11.93;82.03
22649;BME280;11491;41.942;24.220;2023-09-30T02:42:30;90360.53;;;11.65;83.34
22649;BME280;11491;41.942;24.220;2023-09-30T02:44:59;90358.19;;;11.63;83.69
22649;BME280;11491;41.942;24.220;2023-09-30T02:47:26;90363.00;;;11.70;84.06
22649;BME280;11491;41.942;24.220;2023-09-30T02:49:55;90367.44;;;11.66;84.32
22649;BME280;11491;41.942;24.220;2023-09-30T02:52:22;90362.31;;;11.73;84.09
22649;BME280;11491;41.942;24.220;2023-09-30T02:54:49;90348.75;;;11.82;82.91
22649;BME280;11491;41.942;24.220;2023-09-30T02:57:15;90366.97;;;11.76;82.80
22649;BME280;11491;41.942;24.220;2023-09-30T02:59:42;90358.44;;;11.46;83.60
22649;BME280;11491;41.942;24.220;2023-09-30T03:02:09;90356.31;;;11.52;83.96
22649;BME280;11491;41.942;24.220;2023-09-30T03:04:36;90350.28;;;11.55;83.66
22649;BME280;11491;41.942;24.220;2023-09-30T03:07:05;90359.44;;;11.54;83.75
22649;BME280;11491;41.942;24.220;2023-09-30T03:09:32;90354.31;;;11.61;83.28
22649;BME280;11491;41.942;24.220;2023-09-30T03:11:59;90360.78;;;11.48;83.25
22649;BME280;11491;41.942;24.220;2023-09-30T03:14:26;90354.09;;;11.54;82.54
22649;BME280;11491;41.942;24.220;2023-09-30T03:16:56;90364.34;;;11.52;82.33
22649;BME280;11491;41.942;24.220;2023-09-30T03:19:22;90363.13;;;11.49;82.79
22649;BME280;11491;41.942;24.220;2023-09-30T03:21:49;90369.28;;;11.37;82.92
22649;BME280;11491;41.942;24.220;2023-09-30T03:24:17;90366.38;;;11.30;83.43
22649;BME280;11491;41.942;24.220;2023-09-30T03:26:44;90366.50;;;11.34;83.72
22649;BME280;11491;41.942;24.220;2023-09-30T03:29:11;90365.72;;;11.21;83.76
22649;BME280;11491;41.942;24.220;2023-09-30T03:31:38;90370.41;;;11.24;83.47
22649;BME280;11491;41.942;24.220;2023-09-30T03:34:05;90370.63;;;11.19;83.82
22649;BME280;11491;41.942;24.220;2023-09-30T03:36:32;90369.97;;;11.22;83.62
22649;BME280;11491;41.942;24.220;2023-09-30T03:38:59;90366.41;;;11.18;83.52
22649;BME280;11491;41.942;24.220;2023-09-30T03:41:32;90370.31;;;11.08;84.09
22649;BME280;11491;41.942;24.220;2023-09-30T03:44:03;90371.84;;;11.09;82.87
22649;BME280;11491;41.942;24.220;2023-09-30T03:46:32;90367.97;;;11.07;83.60
22649;BME280;11491;41.942;24.220;2023-09-30T03:48:58;90366.97;;;11.11;83.31
22649;BME280;11491;41.942;24.220;2023-09-30T03:51:26;90371.09;;;11.09;82.76
22649;BME280;11491;41.942;24.220;2023-09-30T03:53:53;90375.97;;;10.94;83.46
22649;BME280;11491;41.942;24.220;2023-09-30T03:56:19;90370.63;;;10.94;84.09
22649;BME280;11491;41.942;24.220;2023-09-30T03:58:49;90371.97;;;10.88;84.54
22649;BME280;11491;41.942;24.220;2023-09-30T04:01:15;90371.53;;;10.98;84.06
22649;BME280;11491;41.942;24.220;2023-09-30T04:03:45;90381.88;;;10.88;83.92
22649;BME280;11491;41.942;24.220;2023-09-30T04:06:12;90377.31;;;10.88;84.57
22649;BME280;11491;41.942;24.220;2023-09-30T04:08:39;90384.44;;;10.72;84.61
22649;BME280;11491;41.942;24.220;2023-09-30T04:11:05;90385.09;;;10.69;84.46
22649;BME280;11491;41.942;24.220;2023-09-30T04:13:32;90386.22;;;10.80;83.31
22649;BME280;11491;41.942;24.220;2023-09-30T04:16:01;90375.94;;;10.70;84.26
22649;BME280;11491;41.942;24.220;2023-09-30T04:18:28;90384.44;;;10.72;83.70
22649;BME280;11491;41.942;24.220;2023-09-30T04:20:55;90382.75;;;10.67;83.83
22649;BME280;11491;41.942;24.220;2023-09-30T04:23:22;90385.09;;;10.69;82.91
22649;BME280;11491;41.942;24.220;2023-09-30T04:25:49;90386.66;;;10.70;83.08
22649;BME280;11491;41.942;24.220;2023-09-30T04:28:16;90383.63;;;10.59;83.03
22649;BME280;11491;41.942;24.220;2023-09-30T04:30:46;90388.91;;;10.34;84.73
22649;BME280;11491;41.942;24.220;2023-09-30T04:33:15;90388.94;;;10.47;84.18
22649;BME280;11491;41.942;24.220;2023-09-30T04:35:43;90388.16;;;10.46;83.97
22649;BME280;11491;41.942;24.220;2023-09-30T04:38:11;90390.34;;;10.32;84.86
22649;BME280;11491;41.942;24.220;2023-09-30T04:40:38;90394.47;;;10.29;85.43
22649;BME280;11491;41.942;24.220;2023-09-30T04:43:05;90393.13;;;10.35;85.38
22649;BME280;11491;41.942;24.220;2023-09-30T04:45:32;90396.94;;;10.34;85.15
22649;BME280;11491;41.942;24.220;2023-09-30T04:47:59;90391.69;;;10.38;85.18
22649;BME280;11491;41.942;24.220;2023-09-30T04:50:28;90397.28;;;10.45;85.58
22649;BME280;11491;41.942;24.220;2023-09-30T04:52:56;90395.50;;;10.37;85.55
22649;BME280;11491;41.942;24.220;2023-09-30T04:55:23;90368.50;;;10.30;84.39
22649;BME280;11491;41.942;24.220;2023-09-30T04:57:50;90390.38;;;10.44;84.14
22649;BME280;11491;41.942;24.220;2023-09-30T05:00:18;90375.94;;;10.24;84.69
22649;BME280;11491;41.942;24.220;2023-09-30T05:02:50;90393.41;;;10.22;86.32
22649;BME280;11491;41.942;24.220;2023-09-30T05:05:17;90399.91;;;10.33;86.27
22649;BME280;11491;41.942;24.220;2023-09-30T05:07:46;90405.50;;;10.40;86.49
22649;BME280;11491;41.942;24.220;2023-09-30T05:10:13;90399.50;;;10.43;86.35
22649;BME280;11491;41.942;24.220;2023-09-30T05:12:42;90390.88;;;10.59;85.29
22649;BME280;11491;41.942;24.220;2023-09-30T05:15:11;90401.81;;;10.66;85.36
22649;BME280;11491;41.942;24.220;2023-09-30T05:17:41;90398.91;;;10.71;85.30
22649;BME280;11491;41.942;24.220;2023-09-30T05:20:09;90391.75;;;10.63;85.98
22649;BME280;11491;41.942;24.220;2023-09-30T05:22:37;90396.56;;;10.69;85.94
22649;BME280;11491;41.942;24.220;2023-09-30T05:25:07;90403.94;;;10.85;86.30
22649;BME280;11491;41.942;24.220;2023-09-30T05:27:34;90406.53;;;10.93;85.92
22649;BME280;11491;41.942;24.220;2023-09-30T05:30:01;90357.91;;;10.79;85.46
22649;BME280;11491;41.942;24.220;2023-09-30T05:32:28;90407.66;;;11.29;85.16
22649;BME280;11491;41.942;24.220;2023-09-30T05:34:54;90370.63;;;11.19;84.67
22649;BME280;11491;41.942;24.220;2023-09-30T05:37:24;90343.09;;;11.06;84.15
22649;BME280;11491;41.942;24.220;2023-09-30T05:39:51;90411.09;;;11.67;83.94
22649;BME280;11491;41.942;24.220;2023-09-30T05:42:19;90412.75;;;11.71;83.81
22649;BME280;11491;41.942;24.220;2023-09-30T05:44:47;90410.06;;;11.83;83.43
22649;BME280;11491;41.942;24.220;2023-09-30T05:47:14;90400.25;;;11.88;83.71
22649;BME280;11491;41.942;24.220;2023-09-30T05:49:42;90396.94;;;12.06;83.10
22649;BME280;11491;41.942;24.220;2023-09-30T05:52:08;90402.81;;;12.24;82.26
22649;BME280;11491;41.942;24.220;2023-09-30T05:54:35;90400.28;;;12.44;81.74
22649;BME280;11491;41.942;24.220;2023-09-30T05:57:02;90403.97;;;12.67;81.09
22649;BME280;11491;41.942;24.220;2023-09-30T05:59:30;90405.19;;;12.86;80.57
22649;BME280;11491;41.942;24.220;2023-09-30T06:01:58;90406.16;;;12.93;79.38
22649;BME280;11491;41.942;24.220;2023-09-30T06:04:25;90411.31;;;13.14;78.83
22649;BME280;11491;41.942;24.220;2023-09-30T06:06:50;90409.06;;;13.32;77.94
22649;BME280;11491;41.942;24.220;2023-09-30T06:09:18;90414.06;;;13.34;76.15
22649;BME280;11491;41.942;24.220;2023-09-30T06:11:45;90411.81;;;13.36;76.95
22649;BME280;11491;41.942;24.220;2023-09-30T06:14:12;90416.16;;;13.56;76.56
22649;BME280;11491;41.942;24.220;2023-09-30T06:16:41;90408.72;;;13.85;76.55
22649;BME280;11491;41.942;24.220;2023-09-30T06:19:08;90402.69;;;14.08;75.44
22649;BME280;11491;41.942;24.220;2023-09-30T06:21:34;90413.19;;;14.32;74.16
22649;BME280;11491;41.942;24.220;2023-09-30T06:24:01;90407.53;;;14.57;73.15
22649;BME280;11491;41.942;24.220;2023-09-30T06:26:28;90420.31;;;14.83;72.77
22649;BME280;11491;41.942;24.220;2023-09-30T06:28:55;90415.41;;;15.08;72.22
22649;BME280;11491;41.942;24.220;2023-09-30T06:31:22;90419.59;;;15.28;70.96
22649;BME280;11491;41.942;24.220;2023-09-30T06:33:51;90423.00;;;15.48;69.83
22649;BME280;11491;41.942;24.220;2023-09-30T06:36:18;90414.94;;;15.71;69.46
22649;BME280;11491;41.942;24.220;2023-09-30T06:38:46;90413.69;;;15.92;68.38
22649;BME280;11491;41.942;24.220;2023-09-30T06:41:16;90418.63;;;16.13;66.76
22649;BME280;11491;41.942;24.220;2023-09-30T06:43:43;90410.25;;;16.22;65.35
22649;BME280;11491;41.942;24.220;2023-09-30T06:46:12;90404.31;;;16.39;66.27
22649;BME280;11491;41.942;24.220;2023-09-30T06:48:39;90409.22;;;16.64;65.81
22649;BME280;11491;41.942;24.220;2023-09-30T06:51:12;90402.59;;;16.88;65.90
22649;BME280;11491;41.942;24.220;2023-09-30T06:53:40;90408.19;;;17.06;65.14
22649;BME280;11491;41.942;24.220;2023-09-30T06:56:07;90411.81;;;17.24;65.02
22649;BME280;11491;41.942;24.220;2023-09-30T06:58:34;90403.78;;;17.31;63.55
22649;BME280;11491;41.942;24.220;2023-09-30T07:01:01;90410.22;;;17.57;64.10
22649;BME280;11491;41.942;24.220;2023-09-30T07:03:27;90407.66;;;17.78;63.83
22649;BME280;11491;41.942;24.220;2023-09-30T07:05:55;90400.84;;;17.92;62.71
22649;BME280;11491;41.942;24.220;2023-09-30T07:08:27;90403.31;;;18.15;61.82
22649;BME280;11491;41.942;24.220;2023-09-30T07:10:55;90406.72;;;18.08;57.84
22649;BME280;11491;41.942;24.220;2023-09-30T07:13:22;90396.47;;;17.76;53.94
22649;BME280;11491;41.942;24.220;2023-09-30T07:15:49;90400.78;;;17.84;55.72
22649;BME280;11491;41.942;24.220;2023-09-30T07:18:16;90408.25;;;18.02;54.39
22649;BME280;11491;41.942;24.220;2023-09-30T07:20:43;90411.53;;;18.33;52.85
22649;BME280;11491;41.942;24.220;2023-09-30T07:23:09;90413.88;;;18.34;51.04
22649;BME280;11491;41.942;24.220;2023-09-30T07:25:40;90402.19;;;18.23;50.48
22649;BME280;11491;41.942;24.220;2023-09-30T07:28:06;90407.72;;;18.44;53.35
22649;BME280;11491;41.942;24.220;2023-09-30T07:30:37;90394.66;;;18.64;49.89
22649;BME280;11491;41.942;24.220;2023-09-30T07:33:04;90414.88;;;18.78;52.94
22649;BME280;11491;41.942;24.220;2023-09-30T07:35:31;90408.72;;;18.88;53.15
22649;BME280;11491;41.942;24.220;2023-09-30T07:37:57;90411.47;;;19.02;50.47
22649;BME280;11491;41.942;24.220;2023-09-30T07:40:24;90411.94;;;19.29;50.29
22649;BME280;11491;41.942;24.220;2023-09-30T07:42:52;90415.47;;;19.58;49.23
22649;BME280;11491;41.942;24.220;2023-09-30T07:45:19;90413.53;;;19.55;48.09
22649;BME280;11491;41.942;24.220;2023-09-30T07:47:47;90420.53;;;19.71;46.06
22649;BME280;11491;41.942;24.220;2023-09-30T07:50:14;90420.56;;;19.78;44.48
22649;BME280;11491;41.942;24.220;2023-09-30T07:52:41;90419.00;;;19.77;44.30
22649;BME280;11491;41.942;24.220;2023-09-30T07:55:08;90415.88;;;19.96;46.16
22649;BME280;11491;41.942;24.220;2023-09-30T07:57:35;90425.19;;;20.10;45.10
22649;BME280;11491;41.942;24.220;2023-09-30T08:00:06;90425.97;;;19.89;43.12
22649;BME280;11491;41.942;24.220;2023-09-30T08:02:40;90417.44;;;19.87;42.98
22649;BME280;11491;41.942;24.220;2023-09-30T08:05:08;90420.16;;;19.76;44.80
22649;BME280;11491;41.942;24.220;2023-09-30T08:07:35;90421.28;;;19.61;43.94
22649;BME280;11491;41.942;24.220;2023-09-30T08:10:04;90421.28;;;19.53;44.06
22649;BME280;11491;41.942;24.220;2023-09-30T08:12:32;90415.09;;;19.64;44.48
22649;BME280;11491;41.942;24.220;2023-09-30T08:14:59;90425.97;;;20.03;44.88
22649;BME280;11491;41.942;24.220;2023-09-30T08:17:29;90415.06;;;20.42;43.75
22649;BME280;11491;41.942;24.220;2023-09-30T08:19:56;90415.81;;;20.68;42.75
22649;BME280;11491;41.942;24.220;2023-09-30T08:22:23;90407.94;;;21.02;41.34
22649;BME280;11491;41.942;24.220;2023-09-30T08:24:53;90408.56;;;21.32;40.12
22649;BME280;11491;41.942;24.220;2023-09-30T08:27:19;90398.47;;;21.32;41.43
22649;BME280;11491;41.942;24.220;2023-09-30T08:29:46;90406.56;;;21.43;39.71
22649;BME280;11491;41.942;24.220;2023-09-30T08:32:13;90400.97;;;21.71;39.89
22649;BME280;11491;41.942;24.220;2023-09-30T08:34:41;90401.88;;;22.03;40.31
22649;BME280;11491;41.942;24.220;2023-09-30T08:37:09;90408.84;;;22.07;37.80
22649;BME280;11491;41.942;24.220;2023-09-30T08:39:38;90413.28;;;22.39;38.87
22649;BME280;11491;41.942;24.220;2023-09-30T08:42:09;90405.31;;;22.55;39.60
22649;BME280;11491;41.942;24.220;2023-09-30T08:44:37;90409.16;;;22.62;38.59
22649;BME280;11491;41.942;24.220;2023-09-30T08:47:05;90401.19;;;22.78;38.54
22649;BME280;11491;41.942;24.220;2023-09-30T08:49:34;90411.16;;;22.92;39.04
22649;BME280;11491;41.942;24.220;2023-09-30T08:52:03;90405.72;;;23.26;38.35
22649;BME280;11491;41.942;24.220;2023-09-30T08:54:31;90406.44;;;23.61;38.46
22649;BME280;11491;41.942;24.220;2023-09-30T08:57:00;90406.53;;;24.08;37.28
22649;BME280;11491;41.942;24.220;2023-09-30T08:59:29;90398.13;;;24.46;36.99
22649;BME280;11491;41.942;24.220;2023-09-30T09:01:56;90401.13;;;24.75;35.92
22649;BME280;11491;41.942;24.220;2023-09-30T09:04:24;90405.25;;;24.40;36.21
22649;BME280;11491;41.942;24.220;2023-09-30T09:06:53;90401.75;;;24.63;35.57
22649;BME280;11491;41.942;24.220;2023-09-30T09:09:21;90405.16;;;24.90;34.22
22649;BME280;11491;41.942;24.220;2023-09-30T09:11:50;90399.63;;;25.34;34.61
22649;BME280;11491;41.942;24.220;2023-09-30T09:14:17;90396.09;;;25.53;34.60
22649;BME280;11491;41.942;24.220;2023-09-30T09:16:54;90398.66;;;25.44;33.83
22649;BME280;11491;41.942;24.220;2023-09-30T09:19:21;90402.84;;;25.29;33.41
22649;BME280;11491;41.942;24.220;2023-09-30T09:21:55;90397.84;;;25.44;33.28
22649;BME280;11491;41.942;24.220;2023-09-30T09:24:31;90391.47;;;25.50;32.26
22649;BME280;11491;41.942;24.220;2023-09-30T09:27:05;90384.31;;;25.56;31.68
22649;BME280;11491;41.942;24.220;2023-09-30T09:29:32;90402.03;;;25.32;32.43
22649;BME280;11491;41.942;24.220;2023-09-30T09:32:09;90390.47;;;25.61;33.31
22649;BME280;11491;41.942;24.220;2023-09-30T09:34:36;90389.00;;;25.92;31.34
22649;BME280;11491;41.942;24.220;2023-09-30T09:37:14;90380.81;;;26.09;30.84
22649;BME280;11491;41.942;24.220;2023-09-30T09:39:50;90379.56;;;25.77;30.99
22649;BME280;11491;41.942;24.220;2023-09-30T09:42:35;90379.59;;;25.93;32.55
22649;BME280;11491;41.942;24.220;2023-09-30T09:45:06;90380.28;;;26.30;31.26
22649;BME280;11491;41.942;24.220;2023-09-30T09:47:34;90379.91;;;26.77;30.87
22649;BME280;11491;41.942;24.220;2023-09-30T09:50:03;90375.47;;;26.67;28.58
22649;BME280;11491;41.942;24.220;2023-09-30T09:52:31;90374.97;;;26.39;28.77
22649;BME280;11491;41.942;24.220;2023-09-30T09:55:02;90375.06;;;26.03;30.53
22649;BME280;11491;41.942;24.220;2023-09-30T09:57:31;90364.03;;;25.34;31.43
22649;BME280;11491;41.942;24.220;2023-09-30T09:59:58;90372.69;;;25.12;33.71
22649;BME280;11491;41.942;24.220;2023-09-30T10:02:26;90366.38;;;25.15;32.01
22649;BME280;11491;41.942;24.220;2023-09-30T10:04:53;90354.41;;;25.29;32.33
22649;BME280;11491;41.942;24.220;2023-09-30T10:07:22;90356.50;;;25.94;32.81
22649;BME280;11491;41.942;24.220;2023-09-30T10:09:52;90360.22;;;26.33;30.86
22649;BME280;11491;41.942;24.220;2023-09-30T10:12:21;90362.88;;;26.70;30.04
22649;BME280;11491;41.942;24.220;2023-09-30T10:14:48;90355.53;;;26.96;29.96
22649;BME280;11491;41.942;24.220;2023-09-30T10:17:15;90341.81;;;26.96;29.17
22649;BME280;11491;41.942;24.220;2023-09-30T10:20:04;90349.13;;;26.57;30.08
22649;BME280;11491;41.942;24.220;2023-09-30T10:22:31;90349.78;;;26.45;30.65
22649;BME280;11491;41.942;24.220;2023-09-30T10:24:59;90343.16;;;26.75;30.13
22649;BME280;11491;41.942;24.220;2023-09-30T10:27:31;90333.00;;;26.42;29.79
22649;BME280;11491;41.942;24.220;2023-09-30T10:29:57;90344.03;;;26.72;29.52
22649;BME280;11491;41.942;24.220;2023-09-30T10:33:09;90343.09;;;26.62;28.86
22649;BME280;11491;41.942;24.220;2023-09-30T10:35:46;90339.50;;;26.49;28.92
22649;BME280;11491;41.942;24.220;2023-09-30T10:38:38;90336.78;;;26.78;29.51
22649;BME280;11491;41.942;24.220;2023-09-30T10:41:08;90335.84;;;26.84;28.86
22649;BME280;11491;41.942;24.220;2023-09-30T10:43:38;90337.28;;;26.60;27.99
22649;BME280;11491;41.942;24.220;2023-09-30T10:46:32;90335.56;;;26.33;28.63
22649;BME280;11491;41.942;24.220;2023-09-30T10:49:30;90325.81;;;26.78;28.85
22649;BME280;11491;41.942;24.220;2023-09-30T10:52:01;90332.66;;;26.57;28.96
22649;BME280;11491;41.942;24.220;2023-09-30T10:54:29;90329.66;;;27.10;27.92
22649;BME280;11491;41.942;24.220;2023-09-30T10:56:58;90326.69;;;27.04;28.50
22649;BME280;11491;41.942;24.220;2023-09-30T10:59:29;90324.03;;;26.58;29.34
22649;BME280;11491;41.942;24.220;2023-09-30T11:01:57;90316.78;;;26.94;28.53
22649;BME280;11491;41.942;24.220;2023-09-30T11:04:24;90286.53;;;27.10;29.20
22649;BME280;11491;41.942;24.220;2023-09-30T11:06:52;90315.38;;;27.57;27.79
22649;BME280;11491;41.942;24.220;2023-09-30T11:09:21;90318.72;;;26.80;27.79
22649;BME280;11491;41.942;24.220;2023-09-30T11:11:48;90323.94;;;26.29;29.73
22649;BME280;11491;41.942;24.220;2023-09-30T11:14:19;90314.44;;;26.34;28.18
22649;BME280;11491;41.942;24.220;2023-09-30T11:16:48;90310.88;;;26.66;28.18
22649;BME280;11491;41.942;24.220;2023-09-30T11:19:15;90309.38;;;26.49;29.08
22649;BME280;11491;41.942;24.220;2023-09-30T11:21:42;90319.19;;;26.92;28.64
22649;BME280;11491;41.942;24.220;2023-09-30T11:24:10;90315.44;;;26.85;26.89
22649;BME280;11491;41.942;24.220;2023-09-30T11:26:37;90321.69;;;26.40;29.24
22649;BME280;11491;41.942;24.220;2023-09-30T11:29:08;90326.63;;;26.16;28.08
22649;BME280;11491;41.942;24.220;2023-09-30T11:31:37;90306.59;;;26.65;27.81
22649;BME280;11491;41.942;24.220;2023-09-30T11:34:06;90315.84;;;26.71;28.76
22649;BME280;11491;41.942;24.220;2023-09-30T11:36:34;90304.38;;;26.60;27.01
22649;BME280;11491;41.942;24.220;2023-09-30T11:39:01;90306.50;;;25.74;28.74
22649;BME280;11491;41.942;24.220;2023-09-30T11:41:35;90308.66;;;25.46;28.35
22649;BME280;11491;41.942;24.220;2023-09-30T11:44:05;90299.84;;;25.91;29.73
22649;BME280;11491;41.942;24.220;2023-09-30T11:46:32;90295.97;;;26.51;29.27
22649;BME280;11491;41.942;24.220;2023-09-30T11:49:01;90289.06;;;27.17;26.86
22649;BME280;11491;41.942;24.220;2023-09-30T11:51:29;90286.53;;;27.10;26.82
22649;BME280;11491;41.942;24.220;2023-09-30T11:53:56;90287.53;;;27.03;26.53
22649;BME280;11491;41.942;24.220;2023-09-30T11:56:24;90281.00;;;26.84;27.79
22649;BME280;11491;41.942;24.220;2023-09-30T11:58:55;90281.19;;;26.77;27.81
22649;BME280;11491;41.942;24.220;2023-09-30T12:01:22;90273.81;;;26.61;28.49
22649;BME280;11491;41.942;24.220;2023-09-30T12:03:51;90278.06;;;26.62;27.25
22649;BME280;11491;41.942;24.220;2023-09-30T12:06:18;90257.63;;;26.80;27.15
22649;BME280;11491;41.942;24.220;2023-09-30T12:08:46;90276.22;;;27.14;27.42
22649;BME280;11491;41.942;24.220;2023-09-30T12:11:13;90278.94;;;27.31;26.83
22649;BME280;11491;41.942;24.220;2023-09-30T12:13:41;90273.63;;;27.75;26.79
22649;BME280;11491;41.942;24.220;2023-09-30T12:16:10;90272.25;;;27.83;24.98
22649;BME280;11491;41.942;24.220;2023-09-30T12:18:38;90259.81;;;27.65;26.53
22649;BME280;11491;41.942;24.220;2023-09-30T12:21:06;90258.28;;;27.39;26.24
22649;BME280;11491;41.942;24.220;2023-09-30T12:23:33;90259.50;;;27.51;26.71
22649;BME280;11491;41.942;24.220;2023-09-30T12:26:02;90256.63;;;27.54;25.95
22649;BME280;11491;41.942;24.220;2023-09-30T12:28:30;90256.19;;;27.94;26.09
22649;BME280;11491;41.942;24.220;2023-09-30T12:30:58;90246.50;;;28.37;27.64
22649;BME280;11491;41.942;24.220;2023-09-30T12:33:25;90242.72;;;28.78;25.95
22649;BME280;11491;41.942;24.220;2023-09-30T12:35:53;90252.81;;;29.04;25.86
22649;BME280;11491;41.942;24.220;2023-09-30T12:38:21;90234.63;;;29.28;25.60
22649;BME280;11491;41.942;24.220;2023-09-30T12:40:47;90237.84;;;29.27;25.68
22649;BME280;11491;41.942;24.220;2023-09-30T12:43:16;90245.03;;;28.80;25.52
22649;BME280;11491;41.942;24.220;2023-09-30T12:45:43;90234.38;;;28.91;25.69
22649;BME280;11491;41.942;24.220;2023-09-30T12:48:10;90231.94;;;29.37;26.21
22649;BME280;11491;41.942;24.220;2023-09-30T12:50:37;90233.13;;;29.36;24.73
22649;BME280;11491;41.942;24.220;2023-09-30T12:53:04;90231.19;;;28.49;26.79
22649;BME280;11491;41.942;24.220;2023-09-30T12:55:32;90233.81;;;28.18;28.09
22649;BME280;11491;41.942;24.220;2023-09-30T12:57:59;90230.25;;;27.69;28.17